sensor_id;sensor_type;location;lat;lon;timestamp;temperature;humidity
11836;DHT22;5977;51.972;7.640;2023-06-19T00:02:24;26.70;65.80
11836;DHT22;5977;51.972;7.640;2023-06-19T00:04:52;26.70;65.80
11836;DHT22;5977;51.972;7.640;2023-06-19T00:07:22;26.70;65.90
11836;DHT22;5977;51.972;7.640;2023-06-19T00:09:49;26.60;65.70
11836;DHT22;5977;51.972;7.640;2023-06-19T00:12:17;26.70;65.90
11836;DHT22;5977;51.972;7.640;2023-06-19T00:14:46;26.70;65.90
11836;DHT22;5977;51.972;7.640;2023-06-19T00:17:14;26.60;65.80
11836;DHT22;5977;51.972;7.640;2023-06-19T00:19:43;26.60;66.60
11836;DHT22;5977;51.972;7.640;2023-06-19T00:22:11;26.70;66.00
11836;DHT22;5977;51.972;7.640;2023-06-19T00:24:40;26.70;66.00
11836;DHT22;5977;51.972;7.640;2023-06-19T00:27:08;26.70;65.90
11836;DHT22;5977;51.972;7.640;2023-06-19T00:29:36;26.60;65.90
11836;DHT22;5977;51.972;7.640;2023-06-19T00:32:05;26.70;66.00
11836;DHT22;5977;51.972;7.640;2023-06-19T00:34:33;26.70;65.90
11836;DHT22;5977;51.972;7.640;2023-06-19T00:37:04;26.60;66.00
11836;DHT22;5977;51.972;7.640;2023-06-19T00:39:32;26.60;65.90
11836;DHT22;5977;51.972;7.640;2023-06-19T00:42:01;26.70;66.10
11836;DHT22;5977;51.972;7.640;2023-06-19T00:44:29;26.60;65.90
11836;DHT22;5977;51.972;7.640;2023-06-19T00:46:58;26.60;66.10
11836;DHT22;5977;51.972;7.640;2023-06-19T00:49:29;26.60;66.00
11836;DHT22;5977;51.972;7.640;2023-06-19T00:51:57;26.60;66.00
11836;DHT22;5977;51.972;7.640;2023-06-19T00:54:26;26.60;66.10
11836;DHT22;5977;51.972;7.640;2023-06-19T00:56:53;26.60;66.10
11836;DHT22;5977;51.972;7.640;2023-06-19T00:59:24;26.60;66.10
11836;DHT22;5977;51.972;7.640;2023-06-19T01:01:52;26.60;66.00
11836;DHT22;5977;51.972;7.640;2023-06-19T01:04:20;26.60;66.10
11836;DHT22;5977;51.972;7.640;2023-06-19T01:06:53;26.70;66.20
11836;DHT22;5977;51.972;7.640;2023-06-19T01:09:28;26.60;65.80
11836;DHT22;5977;51.972;7.640;2023-06-19T01:12:08;26.60;65.80
11836;DHT22;5977;51.972;7.640;2023-06-19T01:14:47;26.60;65.80
11836;DHT22;5977;51.972;7.640;2023-06-19T01:17:17;26.60;65.80
11836;DHT22;5977;51.972;7.640;2023-06-19T01:19:46;26.60;66.10
11836;DHT22;5977;51.972;7.640;2023-06-19T01:22:24;26.60;66.10
11836;DHT22;5977;51.972;7.640;2023-06-19T01:24:52;26.60;65.70
11836;DHT22;5977;51.972;7.640;2023-06-19T01:27:20;26.60;66.10
11836;DHT22;5977;51.972;7.640;2023-06-19T01:29:49;26.60;66.10
11836;DHT22;5977;51.972;7.640;2023-06-19T01:32:20;26.60;66.10
11836;DHT22;5977;51.972;7.640;2023-06-19T01:34:52;26.60;65.90
11836;DHT22;5977;51.972;7.640;2023-06-19T01:37:23;26.60;66.10
11836;DHT22;5977;51.972;7.640;2023-06-19T01:39:56;26.60;66.00
11836;DHT22;5977;51.972;7.640;2023-06-19T01:42:25;26.60;66.10
11836;DHT22;5977;51.972;7.640;2023-06-19T01:44:53;26.70;66.20
11836;DHT22;5977;51.972;7.640;2023-06-19T01:47:21;26.60;66.10
11836;DHT22;5977;51.972;7.640;2023-06-19T01:49:49;26.60;66.10
11836;DHT22;5977;51.972;7.640;2023-06-19T01:52:17;26.60;66.10
11836;DHT22;5977;51.972;7.640;2023-06-19T01:54:46;26.60;66.10
11836;DHT22;5977;51.972;7.640;2023-06-19T01:57:14;26.50;66.00
11836;DHT22;5977;51.972;7.640;2023-06-19T01:59:42;26.60;66.20
11836;DHT22;5977;51.972;7.640;2023-06-19T02:02:10;26.50;66.10
11836;DHT22;5977;51.972;7.640;2023-06-19T02:04:38;26.60;66.10
11836;DHT22;5977;51.972;7.640;2023-06-19T02:07:06;26.60;66.10
11836;DHT22;5977;51.972;7.640;2023-06-19T02:09:35;26.60;66.10
11836;DHT22;5977;51.972;7.640;2023-06-19T02:12:05;26.50;66.10
11836;DHT22;5977;51.972;7.640;2023-06-19T02:14:33;26.60;65.90
11836;DHT22;5977;51.972;7.640;2023-06-19T02:17:01;26.60;66.10
11836;DHT22;5977;51.972;7.640;2023-06-19T02:19:29;26.60;66.10
11836;DHT22;5977;51.972;7.640;2023-06-19T02:21:57;26.60;66.20
11836;DHT22;5977;51.972;7.640;2023-06-19T02:24:25;26.60;66.20
11836;DHT22;5977;51.972;7.640;2023-06-19T02:26:53;26.60;66.10
11836;DHT22;5977;51.972;7.640;2023-06-19T02:29:25;26.60;66.10
11836;DHT22;5977;51.972;7.640;2023-06-19T02:31:53;26.50;66.00
11836;DHT22;5977;51.972;7.640;2023-06-19T02:34:21;26.60;66.20
11836;DHT22;5977;51.972;7.640;2023-06-19T02:36:50;26.50;66.10
11836;DHT22;5977;51.972;7.640;2023-06-19T02:39:19;26.60;66.20
11836;DHT22;5977;51.972;7.640;2023-06-19T02:41:48;26.60;66.20
11836;DHT22;5977;51.972;7.640;2023-06-19T02:44:16;26.60;66.20
11836;DHT22;5977;51.972;7.640;2023-06-19T02:46:45;26.50;66.90
11836;DHT22;5977;51.972;7.640;2023-06-19T02:49:13;26.50;66.10
11836;DHT22;5977;51.972;7.640;2023-06-19T02:51:42;26.60;66.20
11836;DHT22;5977;51.972;7.640;2023-06-19T02:54:10;26.50;66.20
11836;DHT22;5977;51.972;7.640;2023-06-19T02:56:38;26.60;66.20
11836;DHT22;5977;51.972;7.640;2023-06-19T02:59:06;26.60;66.20
11836;DHT22;5977;51.972;7.640;2023-06-19T03:01:34;26.50;66.10
11836;DHT22;5977;51.972;7.640;2023-06-19T03:04:03;26.50;66.20
11836;DHT22;5977;51.972;7.640;2023-06-19T03:06:31;26.50;66.00
11836;DHT22;5977;51.972;7.640;2023-06-19T03:09:07;26.50;66.20
11836;DHT22;5977;51.972;7.640;2023-06-19T03:11:38;26.50;66.10
11836;DHT22;5977;51.972;7.640;2023-06-19T03:14:08;26.60;66.20
11836;DHT22;5977;51.972;7.640;2023-06-19T03:16:36;26.50;66.10
11836;DHT22;5977;51.972;7.640;2023-06-19T03:19:06;26.50;66.20
11836;DHT22;5977;51.972;7.640;2023-06-19T03:21:35;26.50;66.10
11836;DHT22;5977;51.972;7.640;2023-06-19T03:24:03;26.50;66.20
11836;DHT22;5977;51.972;7.640;2023-06-19T03:26:33;26.60;66.20
11836;DHT22;5977;51.972;7.640;2023-06-19T03:29:02;26.60;66.20
11836;DHT22;5977;51.972;7.640;2023-06-19T03:31:43;26.50;66.10
11836;DHT22;5977;51.972;7.640;2023-06-19T03:34:12;26.50;66.20
11836;DHT22;5977;51.972;7.640;2023-06-19T03:36:40;26.50;66.10
11836;DHT22;5977;51.972;7.640;2023-06-19T03:39:09;26.60;66.30
11836;DHT22;5977;51.972;7.640;2023-06-19T03:41:38;26.50;66.20
11836;DHT22;5977;51.972;7.640;2023-06-19T03:44:07;26.50;66.20
11836;DHT22;5977;51.972;7.640;2023-06-19T03:46:35;26.60;66.30
11836;DHT22;5977;51.972;7.640;2023-06-19T03:49:03;26.50;67.00
11836;DHT22;5977;51.972;7.640;2023-06-19T03:51:34;26.50;66.20
11836;DHT22;5977;51.972;7.640;2023-06-19T03:54:02;26.50;66.10
11836;DHT22;5977;51.972;7.640;2023-06-19T03:56:30;26.50;66.30
11836;DHT22;5977;51.972;7.640;2023-06-19T03:58:58;26.50;66.40
11836;DHT22;5977;51.972;7.640;2023-06-19T04:01:26;26.40;66.30
11836;DHT22;5977;51.972;7.640;2023-06-19T04:03:54;26.40;66.30
11836;DHT22;5977;51.972;7.640;2023-06-19T04:06:22;26.40;66.30
11836;DHT22;5977;51.972;7.640;2023-06-19T04:08:52;26.50;66.40
11836;DHT22;5977;51.972;7.640;2023-06-19T04:11:22;26.40;66.20
11836;DHT22;5977;51.972;7.640;2023-06-19T04:13:50;26.50;66.40
11836;DHT22;5977;51.972;7.640;2023-06-19T04:16:18;26.40;66.30
11836;DHT22;5977;51.972;7.640;2023-06-19T04:18:47;26.50;66.40
11836;DHT22;5977;51.972;7.640;2023-06-19T04:21:15;26.40;66.30
11836;DHT22;5977;51.972;7.640;2023-06-19T04:23:43;26.40;66.30
11836;DHT22;5977;51.972;7.640;2023-06-19T04:26:12;26.50;66.50
11836;DHT22;5977;51.972;7.640;2023-06-19T04:28:40;26.40;66.30
11836;DHT22;5977;51.972;7.640;2023-06-19T04:31:08;26.50;66.60
11836;DHT22;5977;51.972;7.640;2023-06-19T04:33:36;26.50;66.60
11836;DHT22;5977;51.972;7.640;2023-06-19T04:36:04;26.40;66.60
11836;DHT22;5977;51.972;7.640;2023-06-19T04:38:32;26.50;66.70
11836;DHT22;5977;51.972;7.640;2023-06-19T04:41:00;26.40;66.60
11836;DHT22;5977;51.972;7.640;2023-06-19T04:43:29;26.40;66.70
11836;DHT22;5977;51.972;7.640;2023-06-19T04:45:57;26.40;66.60
11836;DHT22;5977;51.972;7.640;2023-06-19T04:48:25;26.50;66.80
11836;DHT22;5977;51.972;7.640;2023-06-19T04:50:53;26.50;66.80
11836;DHT22;5977;51.972;7.640;2023-06-19T04:53:22;26.50;66.70
11836;DHT22;5977;51.972;7.640;2023-06-19T04:55:50;26.60;66.80
11836;DHT22;5977;51.972;7.640;2023-06-19T04:58:21;26.50;66.70
11836;DHT22;5977;51.972;7.640;2023-06-19T05:00:50;26.50;66.60
11836;DHT22;5977;51.972;7.640;2023-06-19T05:03:19;26.60;66.60
11836;DHT22;5977;51.972;7.640;2023-06-19T05:05:48;26.60;66.60
11836;DHT22;5977;51.972;7.640;2023-06-19T05:08:16;26.60;66.70
11836;DHT22;5977;51.972;7.640;2023-06-19T05:10:44;26.60;66.70
11836;DHT22;5977;51.972;7.640;2023-06-19T05:13:12;26.60;66.80
11836;DHT22;5977;51.972;7.640;2023-06-19T05:15:40;26.60;66.80
11836;DHT22;5977;51.972;7.640;2023-06-19T05:18:09;26.60;66.80
11836;DHT22;5977;51.972;7.640;2023-06-19T05:20:37;26.60;66.70
11836;DHT22;5977;51.972;7.640;2023-06-19T05:23:05;26.60;66.90
11836;DHT22;5977;51.972;7.640;2023-06-19T05:25:33;26.50;66.90
11836;DHT22;5977;51.972;7.640;2023-06-19T05:28:01;26.50;66.90
11836;DHT22;5977;51.972;7.640;2023-06-19T05:30:31;26.60;66.90
11836;DHT22;5977;51.972;7.640;2023-06-19T05:32:59;26.60;67.20
11836;DHT22;5977;51.972;7.640;2023-06-19T05:35:29;26.60;66.90
11836;DHT22;5977;51.972;7.640;2023-06-19T05:37:58;26.60;66.80
11836;DHT22;5977;51.972;7.640;2023-06-19T05:40:26;26.60;66.90
11836;DHT22;5977;51.972;7.640;2023-06-19T05:42:55;26.60;67.00
11836;DHT22;5977;51.972;7.640;2023-06-19T05:45:23;26.60;67.00
11836;DHT22;5977;51.972;7.640;2023-06-19T05:47:51;26.60;67.10
11836;DHT22;5977;51.972;7.640;2023-06-19T05:50:19;26.60;67.10
11836;DHT22;5977;51.972;7.640;2023-06-19T05:52:48;26.60;67.10
11836;DHT22;5977;51.972;7.640;2023-06-19T05:55:16;26.50;67.00
11836;DHT22;5977;51.972;7.640;2023-06-19T05:57:44;26.50;67.10
11836;DHT22;5977;51.972;7.640;2023-06-19T06:00:13;26.60;67.20
11836;DHT22;5977;51.972;7.640;2023-06-19T06:02:41;26.50;67.00
11836;DHT22;5977;51.972;7.640;2023-06-19T06:05:10;26.70;67.00
11836;DHT22;5977;51.972;7.640;2023-06-19T06:07:37;26.70;66.80
11836;DHT22;5977;51.972;7.640;2023-06-19T06:10:09;26.80;67.00
11836;DHT22;5977;51.972;7.640;2023-06-19T06:12:37;26.90;66.50
11836;DHT22;5977;51.972;7.640;2023-06-19T06:15:06;27.00;66.40
11836;DHT22;5977;51.972;7.640;2023-06-19T06:17:34;27.10;66.10
11836;DHT22;5977;51.972;7.640;2023-06-19T06:20:02;27.10;66.00
11836;DHT22;5977;51.972;7.640;2023-06-19T06:22:35;27.10;65.90
11836;DHT22;5977;51.972;7.640;2023-06-19T06:25:04;27.10;65.80
11836;DHT22;5977;51.972;7.640;2023-06-19T06:27:33;27.10;65.70
11836;DHT22;5977;51.972;7.640;2023-06-19T06:30:01;27.20;65.50
11836;DHT22;5977;51.972;7.640;2023-06-19T06:32:30;27.20;65.70
11836;DHT22;5977;51.972;7.640;2023-06-19T06:34:58;27.10;65.50
11836;DHT22;5977;51.972;7.640;2023-06-19T06:37:26;27.20;65.70
11836;DHT22;5977;51.972;7.640;2023-06-19T06:39:54;27.20;65.60
11836;DHT22;5977;51.972;7.640;2023-06-19T06:42:22;27.20;65.70
11836;DHT22;5977;51.972;7.640;2023-06-19T06:44:51;27.30;65.70
11836;DHT22;5977;51.972;7.640;2023-06-19T06:47:19;27.30;65.40
11836;DHT22;5977;51.972;7.640;2023-06-19T06:49:47;27.40;65.50
11836;DHT22;5977;51.972;7.640;2023-06-19T06:52:15;27.40;65.40
11836;DHT22;5977;51.972;7.640;2023-06-19T06:54:42;27.40;65.40
11836;DHT22;5977;51.972;7.640;2023-06-19T06:57:10;27.30;65.40
11836;DHT22;5977;51.972;7.640;2023-06-19T06:59:38;27.50;65.50
11836;DHT22;5977;51.972;7.640;2023-06-19T07:02:08;27.40;65.30
11836;DHT22;5977;51.972;7.640;2023-06-19T07:04:36;27.40;65.30
11836;DHT22;5977;51.972;7.640;2023-06-19T07:07:04;27.30;65.60
11836;DHT22;5977;51.972;7.640;2023-06-19T07:09:32;27.30;65.80
11836;DHT22;5977;51.972;7.640;2023-06-19T07:12:00;27.10;65.90
11836;DHT22;5977;51.972;7.640;2023-06-19T07:14:31;27.10;65.90
11836;DHT22;5977;51.972;7.640;2023-06-19T07:16:58;27.20;66.00
11836;DHT22;5977;51.972;7.640;2023-06-19T07:19:28;27.40;65.90
11836;DHT22;5977;51.972;7.640;2023-06-19T07:21:56;27.50;65.30
11836;DHT22;5977;51.972;7.640;2023-06-19T07:24:24;27.50;65.20
11836;DHT22;5977;51.972;7.640;2023-06-19T07:26:52;27.70;65.00
11836;DHT22;5977;51.972;7.640;2023-06-19T07:29:20;27.70;65.00
11836;DHT22;5977;51.972;7.640;2023-06-19T07:31:48;27.70;64.80
11836;DHT22;5977;51.972;7.640;2023-06-19T07:34:16;27.70;64.90
11836;DHT22;5977;51.972;7.640;2023-06-19T07:36:45;27.70;64.90
11836;DHT22;5977;51.972;7.640;2023-06-19T07:39:13;27.70;64.80
11836;DHT22;5977;51.972;7.640;2023-06-19T07:41:41;27.90;64.90
11836;DHT22;5977;51.972;7.640;2023-06-19T07:44:09;27.90;64.70
11836;DHT22;5977;51.972;7.640;2023-06-19T07:46:37;27.90;64.60
11836;DHT22;5977;51.972;7.640;2023-06-19T07:49:05;27.90;64.70
11836;DHT22;5977;51.972;7.640;2023-06-19T07:51:33;27.80;64.80
11836;DHT22;5977;51.972;7.640;2023-06-19T07:54:02;27.80;65.00
11836;DHT22;5977;51.972;7.640;2023-06-19T07:56:30;27.90;64.90
11836;DHT22;5977;51.972;7.640;2023-06-19T07:58:58;27.80;64.90
11836;DHT22;5977;51.972;7.640;2023-06-19T08:01:27;27.80;64.90
11836;DHT22;5977;51.972;7.640;2023-06-19T08:03:55;27.80;64.80
11836;DHT22;5977;51.972;7.640;2023-06-19T08:06:23;27.90;64.90
11836;DHT22;5977;51.972;7.640;2023-06-19T08:08:51;28.00;64.90
11836;DHT22;5977;51.972;7.640;2023-06-19T08:11:21;28.00;64.70
11836;DHT22;5977;51.972;7.640;2023-06-19T08:13:48;28.20;64.30
11836;DHT22;5977;51.972;7.640;2023-06-19T08:16:16;28.40;63.80
11836;DHT22;5977;51.972;7.640;2023-06-19T08:18:45;28.30;63.70
11836;DHT22;5977;51.972;7.640;2023-06-19T08:21:13;28.20;63.90
11836;DHT22;5977;51.972;7.640;2023-06-19T08:23:41;28.10;64.20
11836;DHT22;5977;51.972;7.640;2023-06-19T08:26:10;27.90;64.60
11836;DHT22;5977;51.972;7.640;2023-06-19T08:28:42;27.80;64.80
11836;DHT22;5977;51.972;7.640;2023-06-19T08:31:11;27.80;64.60
11836;DHT22;5977;51.972;7.640;2023-06-19T08:33:38;27.80;64.70
11836;DHT22;5977;51.972;7.640;2023-06-19T08:36:06;27.90;64.70
11836;DHT22;5977;51.972;7.640;2023-06-19T08:38:34;28.20;64.40
11836;DHT22;5977;51.972;7.640;2023-06-19T08:41:03;28.40;63.80
11836;DHT22;5977;51.972;7.640;2023-06-19T08:43:31;28.30;63.70
11836;DHT22;5977;51.972;7.640;2023-06-19T08:46:09;28.20;64.00
11836;DHT22;5977;51.972;7.640;2023-06-19T08:48:38;28.10;63.90
11836;DHT22;5977;51.972;7.640;2023-06-19T08:51:06;28.00;64.30
11836;DHT22;5977;51.972;7.640;2023-06-19T08:53:43;27.90;64.90
11836;DHT22;5977;51.972;7.640;2023-06-19T08:56:11;27.70;64.80
11836;DHT22;5977;51.972;7.640;2023-06-19T08:58:39;27.70;65.20
11836;DHT22;5977;51.972;7.640;2023-06-19T09:01:08;27.70;65.70
11836;DHT22;5977;51.972;7.640;2023-06-19T09:03:36;27.60;65.70
11836;DHT22;5977;51.972;7.640;2023-06-19T09:06:07;27.50;66.10
11836;DHT22;5977;51.972;7.640;2023-06-19T09:08:36;27.50;65.90
11836;DHT22;5977;51.972;7.640;2023-06-19T09:11:05;27.60;66.00
11836;DHT22;5977;51.972;7.640;2023-06-19T09:13:36;27.60;65.80
11836;DHT22;5977;51.972;7.640;2023-06-19T09:16:06;27.60;65.80
11836;DHT22;5977;51.972;7.640;2023-06-19T09:18:44;27.80;65.50
11836;DHT22;5977;51.972;7.640;2023-06-19T09:21:15;27.90;64.90
11836;DHT22;5977;51.972;7.640;2023-06-19T09:23:45;28.10;64.90
11836;DHT22;5977;51.972;7.640;2023-06-19T09:26:15;28.30;64.70
11836;DHT22;5977;51.972;7.640;2023-06-19T09:28:44;28.20;64.40
11836;DHT22;5977;51.972;7.640;2023-06-19T09:31:12;28.20;64.60
11836;DHT22;5977;51.972;7.640;2023-06-19T09:33:43;28.10;64.70
11836;DHT22;5977;51.972;7.640;2023-06-19T09:36:13;28.10;64.90
11836;DHT22;5977;51.972;7.640;2023-06-19T09:38:41;27.90;65.20
11836;DHT22;5977;51.972;7.640;2023-06-19T09:41:12;27.80;65.50
11836;DHT22;5977;51.972;7.640;2023-06-19T09:43:42;27.70;65.60
11836;DHT22;5977;51.972;7.640;2023-06-19T09:46:14;27.60;65.80
11836;DHT22;5977;51.972;7.640;2023-06-19T09:48:46;27.50;66.00
11836;DHT22;5977;51.972;7.640;2023-06-19T09:51:18;27.50;66.20
11836;DHT22;5977;51.972;7.640;2023-06-19T09:53:50;27.40;66.20
11836;DHT22;5977;51.972;7.640;2023-06-19T09:56:18;27.40;66.30
11836;DHT22;5977;51.972;7.640;2023-06-19T09:58:50;27.50;66.30
11836;DHT22;5977;51.972;7.640;2023-06-19T10:01:19;27.40;66.20
11836;DHT22;5977;51.972;7.640;2023-06-19T10:03:48;27.40;66.30
11836;DHT22;5977;51.972;7.640;2023-06-19T10:06:17;27.40;66.40
11836;DHT22;5977;51.972;7.640;2023-06-19T10:08:46;27.30;66.50
11836;DHT22;5977;51.972;7.640;2023-06-19T10:11:14;27.30;66.70
11836;DHT22;5977;51.972;7.640;2023-06-19T10:13:43;27.30;66.60
11836;DHT22;5977;51.972;7.640;2023-06-19T10:16:19;27.30;66.50
11836;DHT22;5977;51.972;7.640;2023-06-19T10:18:50;27.40;66.20
11836;DHT22;5977;51.972;7.640;2023-06-19T10:21:18;27.40;66.20
11836;DHT22;5977;51.972;7.640;2023-06-19T10:23:53;27.50;66.20
11836;DHT22;5977;51.972;7.640;2023-06-19T10:26:30;27.60;65.80
11836;DHT22;5977;51.972;7.640;2023-06-19T10:28:58;28.00;65.20
11836;DHT22;5977;51.972;7.640;2023-06-19T10:31:26;28.10;64.90
11836;DHT22;5977;51.972;7.640;2023-06-19T10:33:56;28.30;64.70
11836;DHT22;5977;51.972;7.640;2023-06-19T10:36:24;28.20;64.50
11836;DHT22;5977;51.972;7.640;2023-06-19T10:38:53;28.30;64.80
11836;DHT22;5977;51.972;7.640;2023-06-19T10:41:23;28.30;64.80
11836;DHT22;5977;51.972;7.640;2023-06-19T10:43:56;28.20;64.70
11836;DHT22;5977;51.972;7.640;2023-06-19T10:46:29;28.00;64.80
11836;DHT22;5977;51.972;7.640;2023-06-19T10:49:00;27.90;65.30
11836;DHT22;5977;51.972;7.640;2023-06-19T10:51:28;27.80;66.30
11836;DHT22;5977;51.972;7.640;2023-06-19T10:53:57;27.60;65.90
11836;DHT22;5977;51.972;7.640;2023-06-19T10:56:25;27.50;66.10
11836;DHT22;5977;51.972;7.640;2023-06-19T10:58:57;27.60;66.10
11836;DHT22;5977;51.972;7.640;2023-06-19T11:01:32;27.70;65.60
11836;DHT22;5977;51.972;7.640;2023-06-19T11:04:04;27.70;65.50
11836;DHT22;5977;51.972;7.640;2023-06-19T11:06:32;27.70;65.50
11836;DHT22;5977;51.972;7.640;2023-06-19T11:09:03;27.90;65.70
11836;DHT22;5977;51.972;7.640;2023-06-19T11:11:36;27.90;65.60
11836;DHT22;5977;51.972;7.640;2023-06-19T11:14:04;27.80;65.40
11836;DHT22;5977;51.972;7.640;2023-06-19T11:16:33;28.00;65.50
11836;DHT22;5977;51.972;7.640;2023-06-19T11:19:02;28.20;65.10
11836;DHT22;5977;51.972;7.640;2023-06-19T11:21:31;28.30;65.00
11836;DHT22;5977;51.972;7.640;2023-06-19T11:24:04;28.20;64.90
11836;DHT22;5977;51.972;7.640;2023-06-19T11:26:38;28.10;65.20
11836;DHT22;5977;51.972;7.640;2023-06-19T11:29:16;28.00;65.20
11836;DHT22;5977;51.972;7.640;2023-06-19T11:31:45;28.00;65.40
11836;DHT22;5977;51.972;7.640;2023-06-19T11:34:15;27.90;66.00
11836;DHT22;5977;51.972;7.640;2023-06-19T11:36:45;27.90;65.80
11836;DHT22;5977;51.972;7.640;2023-06-19T11:39:15;28.00;65.90
11836;DHT22;5977;51.972;7.640;2023-06-19T11:41:44;27.80;65.80
11836;DHT22;5977;51.972;7.640;2023-06-19T11:44:12;27.80;66.10
11836;DHT22;5977;51.972;7.640;2023-06-19T11:46:42;27.90;66.20
11836;DHT22;5977;51.972;7.640;2023-06-19T11:49:11;27.90;65.90
11836;DHT22;5977;51.972;7.640;2023-06-19T11:51:41;27.90;65.90
11836;DHT22;5977;51.972;7.640;2023-06-19T11:54:10;27.90;65.80
11836;DHT22;5977;51.972;7.640;2023-06-19T11:56:38;28.00;65.90
11836;DHT22;5977;51.972;7.640;2023-06-19T11:59:07;28.00;65.70
11836;DHT22;5977;51.972;7.640;2023-06-19T12:01:36;28.00;65.80
11836;DHT22;5977;51.972;7.640;2023-06-19T12:04:05;28.00;65.80
11836;DHT22;5977;51.972;7.640;2023-06-19T12:06:34;28.00;65.70
11836;DHT22;5977;51.972;7.640;2023-06-19T12:09:05;27.90;65.90
11836;DHT22;5977;51.972;7.640;2023-06-19T12:11:33;27.70;66.00
11836;DHT22;5977;51.972;7.640;2023-06-19T12:14:00;27.60;66.30
11836;DHT22;5977;51.972;7.640;2023-06-19T12:16:28;27.50;66.40
11836;DHT22;5977;51.972;7.640;2023-06-19T12:18:57;27.40;66.60
11836;DHT22;5977;51.972;7.640;2023-06-19T12:21:25;27.40;66.70
11836;DHT22;5977;51.972;7.640;2023-06-19T12:24:06;27.30;66.80
11836;DHT22;5977;51.972;7.640;2023-06-19T12:26:34;27.40;66.80
11836;DHT22;5977;51.972;7.640;2023-06-19T12:29:03;27.30;66.80
11836;DHT22;5977;51.972;7.640;2023-06-19T12:31:33;27.30;66.80
11836;DHT22;5977;51.972;7.640;2023-06-19T12:34:02;27.30;66.90
11836;DHT22;5977;51.972;7.640;2023-06-19T12:36:50;27.30;66.80
11836;DHT22;5977;51.972;7.640;2023-06-19T12:39:20;27.30;66.80
11836;DHT22;5977;51.972;7.640;2023-06-19T12:41:48;27.30;66.60
11836;DHT22;5977;51.972;7.640;2023-06-19T12:44:16;27.30;66.70
11836;DHT22;5977;51.972;7.640;2023-06-19T12:46:44;27.30;66.70
11836;DHT22;5977;51.972;7.640;2023-06-19T12:49:12;27.20;66.60
11836;DHT22;5977;51.972;7.640;2023-06-19T12:51:40;27.20;66.60
11836;DHT22;5977;51.972;7.640;2023-06-19T12:54:08;27.30;66.70
11836;DHT22;5977;51.972;7.640;2023-06-19T12:56:37;27.30;66.60
11836;DHT22;5977;51.972;7.640;2023-06-19T12:59:05;27.30;66.50
11836;DHT22;5977;51.972;7.640;2023-06-19T13:01:33;27.30;66.60
11836;DHT22;5977;51.972;7.640;2023-06-19T13:04:01;27.30;66.70
11836;DHT22;5977;51.972;7.640;2023-06-19T13:06:29;27.30;66.60
11836;DHT22;5977;51.972;7.640;2023-06-19T13:08:57;27.30;66.60
11836;DHT22;5977;51.972;7.640;2023-06-19T13:11:25;27.30;66.50
11836;DHT22;5977;51.972;7.640;2023-06-19T13:13:54;27.30;66.40
11836;DHT22;5977;51.972;7.640;2023-06-19T13:16:22;27.30;66.20
11836;DHT22;5977;51.972;7.640;2023-06-19T13:19:10;27.30;66.30
11836;DHT22;5977;51.972;7.640;2023-06-19T13:21:38;27.30;66.20
11836;DHT22;5977;51.972;7.640;2023-06-19T13:24:06;27.30;66.20
11836;DHT22;5977;51.972;7.640;2023-06-19T13:26:35;27.20;66.10
11836;DHT22;5977;51.972;7.640;2023-06-19T13:29:04;27.30;66.10
11836;DHT22;5977;51.972;7.640;2023-06-19T13:31:32;27.30;66.00
11836;DHT22;5977;51.972;7.640;2023-06-19T13:34:00;27.30;66.10
11836;DHT22;5977;51.972;7.640;2023-06-19T13:36:28;27.20;66.00
11836;DHT22;5977;51.972;7.640;2023-06-19T13:38:56;27.20;66.00
11836;DHT22;5977;51.972;7.640;2023-06-19T13:41:23;27.20;65.80
11836;DHT22;5977;51.972;7.640;2023-06-19T13:43:52;27.20;65.80
11836;DHT22;5977;51.972;7.640;2023-06-19T13:46:22;27.30;65.70
11836;DHT22;5977;51.972;7.640;2023-06-19T13:48:50;27.20;65.40
11836;DHT22;5977;51.972;7.640;2023-06-19T13:51:19;27.30;65.60
11836;DHT22;5977;51.972;7.640;2023-06-19T13:53:47;27.30;65.60
11836;DHT22;5977;51.972;7.640;2023-06-19T13:56:16;27.30;65.70
11836;DHT22;5977;51.972;7.640;2023-06-19T13:58:44;27.30;65.80
11836;DHT22;5977;51.972;7.640;2023-06-19T14:01:12;27.30;65.80
11836;DHT22;5977;51.972;7.640;2023-06-19T14:03:41;27.30;65.70
11836;DHT22;5977;51.972;7.640;2023-06-19T14:06:09;27.30;65.40
11836;DHT22;5977;51.972;7.640;2023-06-19T14:08:39;27.30;65.40
11836;DHT22;5977;51.972;7.640;2023-06-19T14:11:07;27.40;65.30
11836;DHT22;5977;51.972;7.640;2023-06-19T14:13:35;27.30;65.20
11836;DHT22;5977;51.972;7.640;2023-06-19T14:16:03;27.30;65.20
11836;DHT22;5977;51.972;7.640;2023-06-19T14:18:31;27.30;65.20
11836;DHT22;5977;51.972;7.640;2023-06-19T14:21:01;27.30;65.30
11836;DHT22;5977;51.972;7.640;2023-06-19T14:23:29;27.30;65.10
11836;DHT22;5977;51.972;7.640;2023-06-19T14:25:57;27.30;65.20
11836;DHT22;5977;51.972;7.640;2023-06-19T14:28:25;27.30;65.20
11836;DHT22;5977;51.972;7.640;2023-06-19T14:30:53;27.30;65.10
11836;DHT22;5977;51.972;7.640;2023-06-19T14:33:21;27.30;65.10
11836;DHT22;5977;51.972;7.640;2023-06-19T14:35:49;27.30;65.00
11836;DHT22;5977;51.972;7.640;2023-06-19T14:38:20;27.30;64.90
11836;DHT22;5977;51.972;7.640;2023-06-19T14:40:48;27.20;64.80
11836;DHT22;5977;51.972;7.640;2023-06-19T14:43:16;27.30;65.00
11836;DHT22;5977;51.972;7.640;2023-06-19T14:45:44;27.30;64.90
11836;DHT22;5977;51.972;7.640;2023-06-19T14:48:12;27.30;64.90
11836;DHT22;5977;51.972;7.640;2023-06-19T14:50:40;27.30;64.90
11836;DHT22;5977;51.972;7.640;2023-06-19T14:53:08;27.40;64.90
11836;DHT22;5977;51.972;7.640;2023-06-19T14:55:37;27.30;64.70
11836;DHT22;5977;51.972;7.640;2023-06-19T14:58:10;27.40;64.70
11836;DHT22;5977;51.972;7.640;2023-06-19T15:00:37;27.40;64.80
11836;DHT22;5977;51.972;7.640;2023-06-19T15:03:06;27.30;64.80
11836;DHT22;5977;51.972;7.640;2023-06-19T15:05:35;27.30;64.80
11836;DHT22;5977;51.972;7.640;2023-06-19T15:08:03;27.30;64.80
11836;DHT22;5977;51.972;7.640;2023-06-19T15:10:32;27.30;64.80
11836;DHT22;5977;51.972;7.640;2023-06-19T15:13:01;27.30;64.80
11836;DHT22;5977;51.972;7.640;2023-06-19T15:15:29;27.30;64.60
11836;DHT22;5977;51.972;7.640;2023-06-19T15:17:57;27.30;64.80
11836;DHT22;5977;51.972;7.640;2023-06-19T15:20:25;27.30;64.70
11836;DHT22;5977;51.972;7.640;2023-06-19T15:22:53;27.30;64.80
11836;DHT22;5977;51.972;7.640;2023-06-19T15:25:20;27.30;64.70
11836;DHT22;5977;51.972;7.640;2023-06-19T15:27:48;27.40;64.80
11836;DHT22;5977;51.972;7.640;2023-06-19T15:30:18;27.40;64.70
11836;DHT22;5977;51.972;7.640;2023-06-19T15:32:46;27.30;64.60
11836;DHT22;5977;51.972;7.640;2023-06-19T15:35:14;27.30;64.70
11836;DHT22;5977;51.972;7.640;2023-06-19T15:37:42;27.20;64.60
11836;DHT22;5977;51.972;7.640;2023-06-19T15:40:11;27.20;64.60
11836;DHT22;5977;51.972;7.640;2023-06-19T15:42:39;27.20;64.60
11836;DHT22;5977;51.972;7.640;2023-06-19T15:45:08;27.30;64.70
11836;DHT22;5977;51.972;7.640;2023-06-19T15:47:39;27.30;64.50
11836;DHT22;5977;51.972;7.640;2023-06-19T15:50:07;27.20;64.40
11836;DHT22;5977;51.972;7.640;2023-06-19T15:52:36;27.30;64.60
11836;DHT22;5977;51.972;7.640;2023-06-19T15:55:04;27.20;64.50
11836;DHT22;5977;51.972;7.640;2023-06-19T15:57:32;27.20;64.40